createdAt,value
2018-06-01T00:01:10.883Z,83.20
2018-06-01T00:03:38.408Z,83.20
2018-06-01T00:06:06.222Z,83.40
2018-06-01T00:08:33.751Z,83.40
2018-06-01T00:11:02.037Z,83.30
2018-06-01T00:13:29.577Z,83.30
2018-06-01T00:15:57.100Z,83.20
2018-06-01T00:18:24.631Z,83.30
2018-06-01T00:20:52.163Z,83.30
2018-06-01T00:23:19.684Z,83.30
2018-06-01T00:25:47.207Z,83.50
2018-06-01T00:28:15.358Z,83.50
2018-06-01T00:30:42.882Z,83.70
2018-06-01T00:33:10.408Z,83.70
2018-06-01T00:35:38.577Z,83.90
2018-06-01T00:38:06.139Z,83.90
2018-06-01T00:40:33.653Z,83.90
2018-06-01T00:43:01.164Z,84.20
2018-06-01T00:45:28.682Z,84.20
2018-06-01T00:47:56.199Z,84.10
2018-06-01T00:50:23.715Z,84.00
2018-06-01T00:52:51.831Z,84.00
2018-06-01T00:55:25.214Z,84.00
2018-06-01T00:57:52.734Z,84.10
2018-06-01T01:00:20.259Z,84.10
2018-06-01T01:02:47.783Z,83.90
2018-06-01T01:05:15.309Z,83.90
2018-06-01T01:07:42.828Z,84.00
2018-06-01T01:10:11.115Z,84.30
2018-06-01T01:12:38.638Z,84.20
2018-06-01T01:15:06.166Z,84.40
2018-06-01T01:17:33.703Z,84.60
2018-06-01T01:20:01.247Z,84.70
2018-06-01T01:22:28.766Z,84.50
2018-06-01T01:24:56.286Z,84.70
2018-06-01T01:27:23.798Z,84.60
2018-06-01T01:29:51.335Z,84.50
2018-06-01T01:32:18.904Z,84.50
2018-06-01T01:34:46.439Z,84.30
2018-06-01T01:37:13.970Z,84.50
2018-06-01T01:39:41.502Z,84.40
2018-06-01T01:42:09.014Z,84.20
2018-06-01T01:44:36.539Z,84.00
2018-06-01T01:47:04.058Z,84.10
2018-06-01T01:49:31.639Z,83.90
2018-06-01T01:51:59.126Z,84.00
2018-06-01T01:54:27.404Z,83.70
2018-06-01T01:56:54.923Z,83.70
2018-06-01T01:59:22.446Z,83.70
2018-06-01T02:01:51.267Z,83.70
2018-06-01T02:04:18.999Z,83.70
2018-06-01T02:06:46.532Z,83.50
2018-06-01T02:09:14.064Z,83.60
2018-06-01T02:11:41.586Z,83.60
2018-06-01T02:14:09.099Z,83.50
2018-06-01T02:16:36.625Z,83.60
2018-06-01T02:19:04.143Z,83.60
2018-06-01T02:21:31.686Z,83.60
2018-06-01T02:23:59.206Z,83.30
2018-06-01T02:26:26.744Z,83.30
2018-06-01T02:28:54.255Z,83.40
2018-06-01T02:31:21.795Z,83.50
2018-06-01T02:33:49.320Z,83.60
2018-06-01T02:36:16.884Z,83.10
2018-06-01T02:38:44.398Z,83.30
2018-06-01T02:41:11.937Z,83.40
2018-06-01T02:43:39.465Z,83.30
2018-06-01T02:46:07.803Z,83.30
2018-06-01T02:48:35.331Z,83.40
2018-06-01T02:51:02.873Z,83.10
2018-06-01T02:53:30.398Z,83.10
2018-06-01T02:55:57.975Z,83.20
2018-06-01T02:58:25.524Z,83.00
2018-06-01T03:00:53.063Z,82.90
2018-06-01T03:03:20.581Z,83.20
2018-06-01T03:05:48.116Z,83.30
2018-06-01T03:08:15.631Z,83.40
2018-06-01T03:10:43.163Z,83.50
2018-06-01T03:13:10.679Z,83.90
2018-06-01T03:15:38.229Z,83.80
2018-06-01T03:18:05.749Z,84.00
2018-06-01T03:20:33.278Z,84.10
2018-06-01T03:23:00.802Z,84.00
2018-06-01T03:25:28.323Z,83.80
2018-06-01T03:27:55.835Z,83.50
2018-06-01T03:30:23.359Z,83.70
2018-06-01T03:32:50.875Z,83.80
2018-06-01T03:35:18.827Z,83.80
2018-06-01T03:37:46.347Z,83.80
2018-06-01T03:40:13.861Z,83.60
2018-06-01T03:42:41.378Z,83.60
2018-06-01T03:45:08.897Z,83.70
2018-06-01T03:47:36.415Z,83.60
2018-06-01T03:50:03.952Z,83.30
2018-06-01T03:52:31.467Z,83.60
2018-06-01T03:54:58.996Z,84.00
2018-06-01T03:57:27.486Z,83.50
2018-06-01T03:59:55.004Z,83.30
2018-06-01T04:02:22.554Z,83.40
2018-06-01T04:04:50.087Z,82.90
2018-06-01T04:07:18.509Z,82.70
2018-06-01T04:09:46.879Z,82.40
2018-06-01T04:12:14.409Z,82.30
2018-06-01T04:14:41.978Z,82.30
2018-06-01T04:17:09.494Z,82.20
2018-06-01T04:19:37.032Z,82.10
2018-06-01T04:22:04.619Z,82.10
2018-06-01T04:24:32.171Z,82.20
2018-06-01T04:27:00.504Z,81.90
2018-06-01T04:29:28.022Z,82.00
2018-06-01T04:31:55.539Z,81.90
2018-06-01T04:34:23.059Z,81.70
2018-06-01T04:36:50.591Z,81.80
2018-06-01T04:39:18.108Z,81.70
2018-06-01T04:41:46.228Z,81.60
2018-06-01T04:44:13.751Z,81.60
2018-06-01T04:46:41.297Z,81.20
2018-06-01T04:49:08.819Z,81.20
2018-06-01T04:51:36.375Z,81.00
2018-06-01T04:54:04.679Z,81.00
2018-06-01T04:56:32.223Z,80.70
2018-06-01T04:59:00.667Z,80.70
2018-06-01T05:01:28.193Z,80.40
2018-06-01T05:03:55.719Z,80.10
2018-06-01T05:06:24.000Z,80.10
2018-06-01T05:08:51.528Z,80.10
2018-06-01T05:11:19.052Z,79.70
2018-06-01T05:13:46.581Z,79.50
2018-06-01T05:16:14.866Z,79.40
2018-06-01T05:18:42.389Z,79.40
2018-06-01T05:21:09.970Z,79.40
2018-06-01T05:23:38.259Z,79.00
2018-06-01T05:26:05.779Z,78.90
2018-06-01T05:28:33.299Z,78.60
2018-06-01T05:31:00.822Z,78.50
2018-06-01T05:33:28.335Z,78.50
2018-06-01T05:35:55.843Z,78.40
2018-06-01T05:38:23.383Z,78.00
2018-06-01T05:40:51.676Z,78.70
2018-06-01T05:43:19.191Z,78.00
2018-06-01T05:45:46.709Z,78.00
2018-06-01T05:48:15.014Z,77.50
2018-06-01T05:50:42.531Z,77.40
2018-06-01T05:53:10.060Z,76.80
2018-06-01T05:55:37.586Z,76.90
2018-06-01T05:58:05.136Z,76.30
2018-06-01T06:00:32.675Z,76.10
2018-06-01T06:03:00.205Z,76.30
2018-06-01T06:05:27.768Z,76.20
2018-06-01T06:07:55.304Z,76.10
2018-06-01T06:10:22.834Z,75.80
2018-06-01T06:12:51.144Z,73.90
2018-06-01T06:15:18.664Z,73.80
2018-06-01T06:17:46.987Z,70.10
2018-06-01T06:20:14.507Z,69.90
2018-06-01T06:22:42.050Z,69.00
2018-06-01T06:25:09.574Z,66.40
2018-06-01T06:27:37.107Z,63.80
2018-06-01T06:30:04.759Z,61.80
2018-06-01T06:32:32.290Z,58.30
2018-06-01T06:34:59.807Z,57.50
2018-06-01T06:37:27.382Z,55.30
2018-06-01T06:39:54.900Z,51.90
2018-06-01T06:42:22.428Z,49.60
2018-06-01T06:44:49.948Z,47.60
2018-06-01T06:47:19.966Z,44.50
2018-06-01T06:49:47.882Z,44.40
2018-06-01T06:52:15.406Z,42.00
2018-06-01T06:54:42.931Z,40.50
2018-06-01T06:57:10.471Z,40.60
2018-06-01T06:59:37.990Z,39.20
2018-06-01T07:02:05.516Z,37.60
2018-06-01T07:04:33.045Z,36.90
2018-06-01T07:07:01.335Z,36.70
2018-06-01T07:09:28.868Z,36.70
2018-06-01T07:11:56.378Z,37.20
2018-06-01T07:14:23.889Z,37.60
2018-06-01T07:16:52.182Z,38.30
2018-06-01T07:19:19.697Z,37.50
2018-06-01T07:21:47.214Z,38.60
2018-06-01T07:24:15.504Z,41.50
2018-06-01T07:26:43.028Z,40.80
2018-06-01T07:29:10.563Z,42.50
2018-06-01T07:31:38.095Z,44.40
2018-06-01T07:34:05.619Z,45.90
2018-06-01T07:36:33.542Z,47.60
2018-06-01T07:39:01.323Z,49.40
2018-06-01T07:41:29.660Z,52.20
2018-06-01T07:43:57.187Z,52.30
2018-06-01T07:46:24.699Z,53.70
2018-06-01T07:48:52.295Z,55.20
2018-06-01T07:51:19.802Z,55.60
2018-06-01T07:53:47.315Z,55.50
2018-06-01T07:56:14.840Z,55.70
2018-06-01T07:58:42.363Z,56.80
2018-06-01T08:01:09.883Z,57.30
2018-06-01T08:03:37.513Z,58.00
2018-06-01T08:06:04.939Z,59.00
2018-06-01T08:08:32.510Z,60.20
2018-06-01T08:11:00.807Z,63.20
2018-06-01T08:13:28.787Z,63.30
2018-06-01T08:15:56.314Z,64.20
2018-06-01T08:18:23.854Z,64.50
2018-06-01T08:20:51.370Z,65.70
2018-06-01T08:23:19.507Z,66.10
2018-06-01T08:25:47.024Z,66.40
2018-06-01T08:28:14.542Z,68.00
2018-06-01T08:30:42.061Z,68.10
2018-06-01T08:33:09.587Z,68.40
2018-06-01T08:35:37.109Z,69.10
2018-06-01T08:38:06.089Z,69.70
2018-06-01T08:40:33.609Z,69.70
2018-06-01T08:43:01.125Z,70.10
2018-06-01T08:45:28.643Z,70.50
2018-06-01T08:47:56.186Z,70.50
2018-06-01T08:50:23.699Z,70.20
2018-06-01T08:52:52.042Z,70.20
2018-06-01T08:55:19.560Z,70.70
2018-06-01T08:57:47.100Z,71.30
2018-06-01T09:00:14.622Z,72.10
2018-06-01T09:02:42.936Z,72.40
2018-06-01T09:05:10.657Z,72.10
2018-06-01T09:07:38.210Z,72.30
2018-06-01T09:10:08.545Z,71.90
2018-06-01T09:12:36.177Z,72.60
2018-06-01T09:15:03.700Z,72.40
2018-06-01T09:17:34.651Z,73.00
2018-06-01T09:20:03.148Z,74.20
2018-06-01T09:22:30.683Z,74.50
2018-06-01T09:24:58.193Z,75.70
2018-06-01T09:27:25.709Z,76.40
2018-06-01T09:29:54.011Z,76.90
2018-06-01T09:32:21.531Z,76.70
2018-06-01T09:34:49.057Z,77.00
2018-06-01T09:37:16.574Z,77.70
2018-06-01T09:39:44.895Z,78.70
2018-06-01T09:42:12.406Z,78.60
2018-06-01T09:44:40.688Z,79.20
2018-06-01T09:47:08.991Z,79.20
2018-06-01T09:49:36.514Z,79.20
2018-06-01T09:52:04.032Z,79.50
2018-06-01T09:54:31.578Z,80.10
2018-06-01T09:56:59.154Z,79.30
2018-06-01T09:59:26.682Z,80.00
2018-06-01T10:01:54.219Z,80.20
2018-06-01T10:04:22.051Z,80.50
2018-06-01T10:06:49.571Z,80.30
2018-06-01T10:09:17.740Z,79.90
2018-06-01T10:11:45.254Z,80.30
2018-06-01T10:14:12.911Z,80.10
2018-06-01T10:16:40.448Z,78.90
2018-06-01T10:19:07.968Z,78.00
2018-06-01T10:21:35.479Z,78.00
2018-06-01T10:24:02.998Z,77.80
2018-06-01T10:26:30.561Z,77.60
2018-06-01T10:28:58.742Z,77.10
2018-06-01T10:31:26.263Z,76.60
2018-06-01T10:33:54.298Z,75.80
2018-06-01T10:36:21.811Z,75.50
2018-06-01T10:38:49.403Z,74.80
2018-06-01T10:41:17.179Z,74.60
2018-06-01T10:43:44.698Z,73.50
2018-06-01T10:46:12.226Z,72.80
2018-06-01T10:48:39.753Z,72.10
2018-06-01T10:51:07.475Z,71.50
2018-06-01T10:53:34.995Z,70.90
2018-06-01T10:56:02.952Z,68.50
2018-06-01T10:58:30.471Z,67.60
2018-06-01T11:00:58.017Z,65.80
2018-06-01T11:03:25.544Z,63.50
2018-06-01T11:05:53.298Z,63.80
2018-06-01T11:08:20.826Z,63.10
2018-06-01T11:10:48.363Z,62.60
2018-06-01T11:13:16.388Z,62.20
2018-06-01T11:15:44.153Z,62.90
2018-06-01T11:18:11.671Z,63.70
2018-06-01T11:20:39.966Z,61.80
2018-06-01T11:23:08.248Z,62.00
2018-06-01T11:25:36.543Z,61.30
2018-06-01T11:28:04.070Z,61.20
2018-06-01T11:30:32.385Z,60.70
2018-06-01T11:32:59.905Z,60.70
2018-06-01T11:35:28.206Z,60.90
2018-06-01T11:37:55.718Z,60.90
2018-06-01T11:40:23.250Z,59.90
2018-06-01T11:42:50.775Z,61.60
2018-06-01T11:45:18.295Z,62.60
2018-06-01T11:47:45.807Z,64.00
2018-06-01T11:50:13.330Z,65.70
2018-06-01T11:52:40.858Z,66.20
2018-06-01T11:55:08.383Z,65.80
2018-06-01T11:57:35.910Z,64.90
2018-06-01T12:00:03.433Z,66.00
2018-06-01T12:02:30.966Z,64.40
2018-06-01T12:04:58.523Z,65.70
2018-06-01T12:07:26.043Z,65.80
2018-06-01T12:09:53.559Z,65.80
2018-06-01T12:12:21.085Z,65.70
2018-06-01T12:14:49.373Z,61.00
2018-06-01T12:17:16.900Z,60.90
2018-06-01T12:19:44.419Z,62.40
2018-06-01T12:22:11.935Z,61.30
2018-06-01T12:24:40.279Z,57.00
2018-06-01T12:27:07.819Z,56.70
2018-06-01T12:29:35.334Z,57.60
2018-06-01T12:32:03.620Z,57.70
2018-06-01T12:34:31.134Z,57.60
2018-06-01T12:36:58.674Z,59.20
2018-06-01T12:39:26.204Z,59.20
2018-06-01T12:41:54.518Z,58.40
2018-06-01T12:44:22.076Z,58.30
2018-06-01T12:46:49.619Z,57.80
2018-06-01T12:49:17.161Z,57.00
2018-06-01T12:51:45.459Z,57.00
2018-06-01T12:54:12.983Z,56.90
2018-06-01T12:56:40.516Z,56.20
2018-06-01T12:59:08.026Z,55.50
2018-06-01T13:01:35.554Z,56.10
2018-06-01T13:04:03.067Z,54.80
2018-06-01T13:06:30.603Z,55.20
2018-06-01T13:08:58.136Z,55.90
2018-06-01T13:11:25.674Z,56.10
2018-06-01T13:13:53.194Z,55.70
2018-06-01T13:16:20.732Z,54.70
2018-06-01T13:18:48.257Z,55.70
2018-06-01T13:21:16.552Z,56.00
2018-06-01T13:23:44.069Z,55.90
2018-06-01T13:26:11.591Z,56.50
2018-06-01T13:28:39.116Z,56.30
2018-06-01T13:31:07.393Z,59.00
2018-06-01T13:33:34.912Z,59.00
2018-06-01T13:36:02.455Z,58.90
2018-06-01T13:38:29.970Z,56.80
2018-06-01T13:40:57.488Z,58.20
2018-06-01T13:43:25.008Z,58.40
2018-06-01T13:45:52.537Z,58.70
2018-06-01T13:48:20.060Z,59.40
2018-06-01T13:50:47.588Z,58.10
2018-06-01T13:53:15.110Z,57.60
2018-06-01T13:55:42.623Z,57.70
2018-06-01T13:58:10.139Z,57.30
2018-06-01T14:00:37.687Z,56.30
2018-06-01T14:03:05.207Z,56.70
2018-06-01T14:05:32.722Z,57.80
2018-06-01T14:08:00.255Z,56.70
2018-06-01T14:10:27.775Z,56.10
2018-06-01T14:12:55.297Z,55.90
2018-06-01T14:15:22.824Z,56.60
2018-06-01T14:17:50.354Z,56.60
2018-06-01T14:20:17.883Z,56.30
2018-06-01T14:22:45.527Z,57.00
2018-06-01T14:25:13.040Z,57.40
2018-06-01T14:27:41.331Z,58.50
2018-06-01T14:30:08.850Z,58.30
2018-06-01T14:32:36.368Z,59.70
2018-06-01T14:35:03.884Z,59.30
2018-06-01T14:37:31.418Z,59.80
2018-06-01T14:39:58.943Z,61.10
2018-06-01T14:42:26.476Z,62.80
2018-06-01T14:44:54.019Z,62.80
2018-06-01T14:47:21.580Z,62.90
2018-06-01T14:49:49.108Z,61.40
2018-06-01T14:52:16.639Z,61.10
2018-06-01T14:54:44.926Z,62.80
2018-06-01T14:57:12.439Z,62.80
2018-06-01T14:59:39.950Z,65.50
2018-06-01T15:02:07.462Z,65.60
2018-06-01T15:04:34.985Z,64.40
2018-06-01T15:07:02.508Z,64.30
2018-06-01T15:09:30.799Z,65.20
2018-06-01T15:11:58.318Z,65.20
2018-06-01T15:14:25.855Z,65.60
2018-06-01T15:16:53.393Z,66.10
2018-06-01T15:19:20.935Z,66.90
2018-06-01T15:21:48.451Z,67.20
2018-06-01T15:24:15.973Z,66.60
2018-06-01T15:26:43.500Z,66.50
2018-06-01T15:29:11.020Z,66.10
2018-06-01T15:31:38.559Z,66.20
2018-06-01T15:34:06.075Z,65.90
2018-06-01T15:36:33.590Z,66.10
2018-06-01T15:39:01.106Z,66.50
2018-06-01T15:41:28.970Z,66.20
2018-06-01T15:43:56.491Z,65.90
2018-06-01T15:46:24.015Z,65.90
2018-06-01T15:48:51.534Z,65.80
2018-06-01T15:51:19.059Z,65.60
2018-06-01T15:53:46.580Z,65.50
2018-06-01T15:56:14.431Z,65.50
2018-06-01T15:58:41.973Z,64.80
2018-06-01T16:01:09.479Z,64.60
2018-06-01T16:03:36.995Z,64.70
2018-06-01T16:06:04.514Z,64.20
2018-06-01T16:08:32.031Z,65.00
2018-06-01T16:11:00.306Z,64.90
2018-06-01T16:13:27.827Z,64.20
2018-06-01T16:15:55.351Z,64.40
2018-06-01T16:18:22.863Z,63.60
2018-06-01T16:20:50.652Z,63.40
2018-06-01T16:23:18.179Z,64.00
2018-06-01T16:25:45.704Z,63.50
2018-06-01T16:28:13.223Z,63.40
2018-06-01T16:30:40.740Z,63.90
2018-06-01T16:33:08.259Z,64.20
2018-06-01T16:35:35.780Z,63.70
2018-06-01T16:38:03.304Z,63.30
2018-06-01T16:40:30.835Z,63.40
2018-06-01T16:42:58.362Z,63.70
2018-06-01T16:45:25.898Z,63.50
2018-06-01T16:47:53.478Z,63.90
2018-06-01T16:50:20.990Z,63.20
2018-06-01T16:52:48.521Z,62.90
2018-06-01T16:55:16.075Z,63.50
2018-06-01T16:57:43.601Z,63.70
2018-06-01T17:00:11.143Z,64.30
2018-06-01T17:02:38.678Z,64.20
2018-06-01T17:05:06.184Z,64.50
2018-06-01T17:07:33.701Z,64.90
2018-06-01T17:10:01.996Z,66.00
2018-06-01T17:12:29.514Z,66.00
2018-06-01T17:14:57.039Z,66.50
2018-06-01T17:17:24.752Z,66.80
2018-06-01T17:19:52.271Z,67.40
2018-06-01T17:22:19.783Z,67.30
2018-06-01T17:24:48.063Z,67.50
2018-06-01T17:27:15.600Z,67.50
2018-06-01T17:29:43.114Z,67.80
2018-06-01T17:32:10.637Z,68.10
2018-06-01T17:34:38.922Z,68.90
2018-06-01T17:37:06.448Z,68.90
2018-06-01T17:39:33.995Z,69.20
2018-06-01T17:42:01.532Z,70.00
2018-06-01T17:44:29.058Z,70.10
2018-06-01T17:46:57.347Z,68.50
2018-06-01T17:49:24.873Z,68.50
2018-06-01T17:51:52.404Z,68.30
2018-06-01T17:54:19.916Z,68.60
2018-06-01T17:56:47.432Z,69.80
2018-06-01T17:59:14.947Z,71.20
2018-06-01T18:01:42.488Z,72.90
2018-06-01T18:04:10.018Z,74.20
2018-06-01T18:06:37.537Z,75.60
2018-06-01T18:09:05.858Z,77.20
2018-06-01T18:11:33.374Z,79.20
2018-06-01T18:14:00.895Z,80.50
2018-06-01T18:16:28.415Z,81.00
2018-06-01T18:18:55.930Z,82.40
2018-06-01T18:21:24.210Z,84.00
2018-06-01T18:23:51.730Z,83.90
2018-06-01T18:26:19.247Z,83.80
2018-06-01T18:28:46.767Z,84.30
2018-06-01T18:31:14.279Z,84.70
2018-06-01T18:33:41.786Z,84.40
2018-06-01T18:36:09.317Z,84.30
2018-06-01T18:38:36.943Z,85.30
2018-06-01T18:41:05.228Z,86.10
2018-06-01T18:43:33.347Z,86.10
2018-06-01T18:46:00.860Z,86.30
2018-06-01T18:48:28.728Z,86.20
2018-06-01T18:50:56.354Z,86.10
2018-06-01T18:53:23.871Z,86.10
2018-06-01T18:55:51.431Z,86.50
2018-06-01T18:58:18.951Z,86.80
2018-06-01T19:00:46.471Z,86.70
2018-06-01T19:03:14.020Z,87.00
2018-06-01T19:05:41.551Z,86.80
2018-06-01T19:08:09.098Z,86.80
2018-06-01T19:10:36.616Z,86.10
2018-06-01T19:13:04.236Z,86.60
2018-06-01T19:15:31.733Z,86.00
2018-06-01T19:18:00.038Z,86.30
2018-06-01T19:20:27.826Z,86.20
2018-06-01T19:22:55.360Z,85.90
2018-06-01T19:25:22.891Z,86.20
2018-06-01T19:27:50.406Z,86.20
2018-06-01T19:30:17.954Z,86.10
2018-06-01T19:32:46.237Z,85.90
2018-06-01T19:35:13.764Z,85.80
2018-06-01T19:37:41.286Z,86.00
2018-06-01T19:40:08.863Z,85.50
2018-06-01T19:42:36.355Z,85.70
2018-06-01T19:45:03.875Z,85.80
2018-06-01T19:47:31.418Z,85.40
2018-06-01T19:49:58.936Z,84.90
2018-06-01T19:52:26.463Z,84.70
2018-06-01T19:54:53.995Z,82.50
2018-06-01T19:57:21.515Z,83.00
2018-06-01T19:59:49.107Z,83.00
2018-06-01T20:02:16.696Z,83.00
2018-06-01T20:04:44.232Z,82.90
2018-06-01T20:07:11.786Z,82.80
2018-06-01T20:09:39.330Z,82.90
2018-06-01T20:12:07.611Z,83.00
2018-06-01T20:14:35.542Z,83.00
2018-06-01T20:17:03.101Z,83.20
2018-06-01T20:19:30.610Z,84.10
2018-06-01T20:21:58.895Z,84.00
2018-06-01T20:24:26.416Z,83.90
2018-06-01T20:26:53.956Z,84.00
2018-06-01T20:29:21.478Z,84.40
2018-06-01T20:31:49.008Z,83.80
2018-06-01T20:34:16.532Z,84.10
2018-06-01T20:36:44.819Z,84.10
2018-06-01T20:39:12.623Z,84.00
2018-06-01T20:41:40.317Z,83.40
2018-06-01T20:44:07.990Z,83.80
2018-06-01T20:46:35.516Z,83.80
2018-06-01T20:49:03.302Z,83.80
2018-06-01T20:51:30.835Z,83.60
2018-06-01T20:53:58.350Z,83.30
2018-06-01T20:56:26.165Z,83.40
2018-06-01T20:58:53.700Z,83.60
2018-06-01T21:01:24.292Z,83.20
2018-06-01T21:03:51.811Z,83.60
2018-06-01T21:06:19.685Z,83.30
2018-06-01T21:08:47.195Z,83.00
2018-06-01T21:11:14.711Z,82.80
2018-06-01T21:13:42.232Z,83.30
2018-06-01T21:16:09.774Z,83.80
2018-06-01T21:18:37.291Z,83.70
2018-06-01T21:21:05.580Z,83.90
2018-06-01T21:23:33.115Z,83.90
2018-06-01T21:26:00.630Z,83.50
2018-06-01T21:28:28.188Z,83.40
2018-06-01T21:30:55.754Z,83.80
2018-06-01T21:33:23.243Z,84.20
2018-06-01T21:35:50.756Z,84.00
2018-06-01T21:38:18.285Z,83.70
2018-06-01T21:40:45.810Z,83.20
2018-06-01T21:43:13.351Z,83.50
2018-06-01T21:45:40.859Z,83.30
2018-06-01T21:48:09.154Z,82.90
2018-06-01T21:50:36.668Z,83.40
2018-06-01T21:53:04.708Z,83.10
2018-06-01T21:55:32.265Z,83.10
2018-06-01T21:57:59.815Z,83.10
2018-06-01T22:00:28.275Z,82.30
2018-06-01T22:02:55.800Z,82.50
2018-06-01T22:05:23.326Z,82.20
2018-06-01T22:07:50.843Z,82.60
2018-06-01T22:10:18.380Z,82.40
2018-06-01T22:12:45.900Z,82.50
2018-06-01T22:15:13.410Z,82.70
2018-06-01T22:17:40.936Z,82.70
2018-06-01T22:20:08.456Z,82.70
2018-06-01T22:22:36.747Z,81.90
2018-06-01T22:25:04.268Z,81.90
2018-06-01T22:27:31.785Z,82.10
2018-06-01T22:29:59.306Z,82.30
2018-06-01T22:32:26.822Z,82.60
2018-06-01T22:34:54.339Z,82.40
2018-06-01T22:37:21.851Z,82.50
2018-06-01T22:39:49.374Z,82.80
2018-06-01T22:42:16.890Z,83.20
2018-06-01T22:44:44.414Z,82.70
2018-06-01T22:47:11.928Z,82.50
2018-06-01T22:49:40.223Z,82.90
2018-06-01T22:52:07.748Z,82.90
2018-06-01T22:54:35.295Z,82.50
2018-06-01T22:57:02.807Z,82.50
2018-06-01T22:59:30.332Z,82.60
2018-06-01T23:01:57.848Z,82.30
2018-06-01T23:04:25.427Z,82.00
2018-06-01T23:06:52.953Z,82.20
2018-06-01T23:09:20.481Z,81.30
2018-06-01T23:11:47.995Z,82.00
2018-06-01T23:14:15.530Z,82.20
2018-06-01T23:16:43.054Z,81.00
2018-06-01T23:19:10.570Z,81.30
2018-06-01T23:21:38.114Z,81.60
2018-06-01T23:24:05.639Z,81.50
2018-06-01T23:26:33.163Z,81.60
2018-06-01T23:29:00.682Z,81.80
2018-06-01T23:31:28.202Z,81.60
2018-06-01T23:33:55.729Z,81.10
2018-06-01T23:36:23.262Z,80.70
2018-06-01T23:38:50.779Z,80.40
2018-06-01T23:41:18.304Z,80.60
2018-06-01T23:43:45.819Z,80.50
2018-06-01T23:46:13.335Z,80.50
2018-06-01T23:48:41.444Z,80.70
2018-06-01T23:51:08.976Z,81.30
2018-06-01T23:53:36.491Z,81.30
2018-06-01T23:56:04.015Z,80.90
2018-06-01T23:58:31.534Z,80.90
